• Join FlightAware (Why Join?)
  • Login
  • US Flag 
12:29PM EST


 

Airport Tracker/Info


-or-


 

Live Flight TrackerFlight Track Log ✈ SWA1451 ✈ 10-May-2014 ✈ KLAS - KSJC

Flight Track Log - Related Links

Times and Time Zones

All times are in EDT time to prevent confusion due to time zone crossing. See the SWA1451 flight status page for this flight to view local times or setup timezone preferences in your user account.

Time Position Orientation Groundspeed Altitude Reporting Facility
EDT Latitude Longitude Course Direction KTS MPH feet Rate Location/Type
08:15PM 36.0767 -115.1706 271° West 177 204 3,200  Level Los Angeles Center
08:15PM 36.0772 -115.2131 271° West 205 236 4,300 2,160 Climbing Los Angeles Center
08:16PM 36.0703 -115.2461 255° West 222 255 5,500 2,280 Climbing Los Angeles Center
08:16PM 36.0319 -115.2731 210° Southwest 251 289 6,900 1,440 Climbing Los Angeles Center
08:17PM 36.0111 -115.2814 198° South 245 282 7,000 60 Climbing Los Angeles Center
08:17PM 35.9681 -115.3072 206° Southwest 277 319 7,000 1,320 Level Los Angeles Center
08:18PM 35.9442 -115.3336 222° Southwest 270 311 8,400 1,920 Climbing Los Angeles Center
08:18PM 35.9147 -115.3700 225° Southwest 273 314 9,000 540 Climbing Los Angeles Center
08:19PM 35.8900 -115.4008 225° Southwest 272 313 9,000 840 Level Los Angeles Center
08:20PM 35.8875 -115.4931 268° West 270 311 10,300 960 Climbing Los Angeles Center
08:21PM 35.8894 -115.5972 271° West 278 320 11,000 660 Climbing Los Angeles Center
08:22PM 35.8908 -115.6956 271° West 284 327 11,700 1,800 Climbing Los Angeles Center
08:23PM 35.8925 -115.7911 271° West 281 323 14,800 2,580 Climbing Los Angeles Center
08:24PM 35.8942 -115.8939 271° West 280 322 17,100 1,920 Climbing Los Angeles Center
08:25PM 35.9214 -115.9986 288° West 335 386 18,800 1,680 Climbing Los Angeles Center
08:26PM 35.9939 -116.0825 317° Northwest 354 407 20,600 2,040 Climbing Los Angeles Center
08:27PM 36.0733 -116.1733 317° Northwest 358 412 23,100 1,800 Climbing Los Angeles Center
08:28PM 36.1433 -116.2553 317° Northwest 365 420 24,400 1,560 Climbing Los Angeles Center
08:29PM 36.2100 -116.3517 311° West 376 433 26,300 1,800 Climbing Los Angeles Center
08:30PM 36.2414 -116.4656 289° West 359 413 28,200 1,620 Climbing Los Angeles Center
08:31PM 36.2714 -116.5797 288° West 355 409 29,700 1,560 Climbing Los Angeles Center
08:32PM 36.3019 -116.6925 289° West 350 403 31,400 1,080 Climbing Los Angeles Center
08:33PM 36.3372 -116.8264 288° West 349 402 32,000 240 Climbing Los Angeles Center
08:34PM 36.3678 -116.9383 289° West 348 400 32,000  Level Los Angeles Center
08:35PM 36.3967 -117.0503 288° West 347 399 32,000  Level Los Angeles Center
08:36PM 36.4250 -117.1581 288° West 342 394 32,000  Level Los Angeles Center
08:37PM 36.4533 -117.2681 288° West 334 384 32,000  Level Los Angeles Center
08:38PM 36.4806 -117.3717 288° West 333 383 32,000  Level Los Angeles Center
08:39PM 36.5075 -117.4781 288° West 329 379 32,000  Level Los Angeles Center
08:40PM 36.5356 -117.5844 288° West 328 377 32,000  Level Los Angeles Center
08:41PM 36.5692 -117.7144 288° West 328 377 32,000  Level Los Angeles Center
08:42PM 36.5975 -117.8250 288° West 329 379 32,000  Level Los Angeles Center
08:43PM 36.6256 -117.9356 288° West 332 382 32,000  Level Los Angeles Center
08:44PM 36.6450 -118.0122 288° West 337 388 32,000  Level Oakland Center
08:45PM 36.6742 -118.1281 287° West 345 397 32,000  Level Oakland Center
08:46PM 36.7031 -118.2394 288° West 342 394 32,000  Level Oakland Center
08:47PM 36.7308 -118.3519 287° West 339 390 32,000  Level Oakland Center
08:48PM 36.7600 -118.4667 288° West 344 396 32,000  Level Oakland Center
08:49PM 36.7900 -118.5933 287° West 339 390 32,000 -120 Level Oakland Center
08:50PM 36.8150 -118.6969 287° West 324 373 31,800 -600 Descending Oakland Center
08:51PM 36.8414 -118.8064 287° West 325 374 30,800 -960 Descending Oakland Center
08:52PM 36.8672 -118.9164 286° West 328 377 29,900 -420 Descending Oakland Center
08:53PM 36.8956 -119.0256 288° West 328 377 30,000  Climbing Oakland Center
08:54PM 36.9211 -119.1356 286° West 330 380 30,000  Level Oakland Center
08:55PM 36.9481 -119.2447 287° West 330 380 30,000  Level Oakland Center
08:56PM 36.9739 -119.3544 286° West 330 380 30,000 -60 Level Oakland Center
08:57PM 37.0008 -119.4669 287° West 331 381 29,900  Descending Oakland Center
08:58PM 37.0272 -119.5775 287° West 331 381 30,000  Climbing Oakland Center
08:59PM 37.0522 -119.6861 286° West 331 381 30,000  Level Oakland Center
09:00PM 37.0789 -119.7989 287° West 334 384 30,000 -180 Level Oakland Center
09:01PM 37.1053 -119.9111 286° West 334 384 29,700 -660 Descending Oakland Center
09:02PM 37.1339 -120.0372 286° West 322 371 28,700 -1,860 Descending Oakland Center
09:03PM 37.1603 -120.1447 287° West 320 368 26,000 -2,760 Descending Oakland Center
09:04PM 37.1853 -120.2553 286° West 327 376 23,100 -2,220 Descending Oakland Center
09:05PM 37.2086 -120.3600 286° West 314 361 21,500 -1,320 Descending Oakland Center
09:06PM 37.2069 -120.4614 269° West 312 359 20,500 -960 Descending Oakland Center
09:07PM 37.1828 -120.5725 255° West 328 377 19,600 -1,680 Descending Oakland Center
09:08PM 37.1569 -120.6931 255° West 338 389 17,100 -1,920 Descending Oakland Center
09:09PM 37.1350 -120.8014 256° West 340 391 15,700 -600 Descending Oakland Center
09:10PM 37.1222 -120.9131 262° West 328 377 15,900 60 Climbing Oakland Center
09:11PM 37.1103 -121.0247 262° West 326 375 15,900 -900 Level Oakland Center
09:12PM 37.0975 -121.1364 262° West 326 375 14,100 -1,860 Descending Oakland Center
09:13PM 37.0842 -121.2428 261° West 323 372 12,200 -2,040 Descending Oakland Center
09:14PM 37.0847 -121.3547 270° West 322 371 10,000 -1,560 Descending Oakland Center
09:15PM 37.1067 -121.4492 286° West 285 328 9,100 -1,320 Descending Oakland Center
09:16PM 37.1267 -121.5406 285° West 275 316 7,400 -1,920 Descending Oakland Center
09:17PM 37.1492 -121.6456 285° West 270 311 5,300 -1,440 Descending Oakland Center
09:18PM 37.1719 -121.7328 288° West 269 310 4,500 -840 Descending Oakland Center
09:19PM 37.2200 -121.7789 323° Northwest 235 270 3,600 -1,020 Descending Oakland Center
09:21PM 37.2628 -121.8225 321° Northwest 214 246 2,500 -1,140 Descending Oakland Center
09:22PM 37.3003 -121.8611 321° Northwest 192 221 1,400 -840 Descending Oakland Center
09:23PM 37.3281 -121.8906 320° Northwest 155 178 800 -660 Descending Oakland Center
09:24PM 37.3550 -121.9194 320° Northwest 136 157 100 -720 Descending Oakland Center
09:26PM 37.3500 -121.9167 North  Level FlightAware Approximate